Tiempo atmosférico en la estación meteorológica de Ocaña, Toledo (733 m.)



Fecha
DESCASC
Temp. máxima en grados centígrados (hora)
DESCASC
Temp. mínima en grados centígrados (hora)
DESCASC
Temp. media en grados centígrados
DESCASC
Racha de viento máxima en m/sg (hora)
DESCASC
Velocidad máxima media en intervalos de 10 minutos(hora)
DESCASC
Precipitaciones diarias en mm
DESCASC
Precipitaciones de 00:00 a 06:00 en mm
DESCASC
Precipitaciones de 06:00 a 12:00 en mm
DESCASC
Precipitaciones de 12:00 a 18:00 en mm
DESCASC
Precipitaciones de 18:00 a 24:00 en mm
DESCASC
26-07-2019 30.5 (16:20) 21.9 (00:00) 26.2 12.78 (16:40) 5.83 (15:30) 0 0 0 0 0
20-08-2019 31.4 (16:40) 21.1 (00:00) 26.3 12.78 (23:10) 8.33 (22:10) 0 0 0 0 0
07-08-2019 28.5 (13:30) 20.4 (00:00) 24.4 10.28 (14:50) 5.56 (14:50) 0 0 0 0 0
03-08-2019 36.3 (16:50) 19.8 (00:00) 28 7.78 (16:50) 4.17 (05:40) 0 0 0 0 0
09-08-2019 33 (17:10) 19.5 (00:00) 26.3 12.5 (17:10) 6.94 (20:40) 0 0 0 0 0
21-08-2019 29.4 (15:30) 19.3 (00:00) 24.3 11.67 (23:00) 8.33 (23:00) 1.4 0 0 0 1.4
31-07-2019 34 (17:10) 19.1 (00:00) 26.6 14.17 (23:30) 8.89 (23:20) 0 0 0 0 0
17-08-2019 37.2 (16:50) 19 (00:00) 28.1 10.83 (16:00) 4.72 (16:00) 0 0 0 0 0
16-08-2019 36 (17:40) 18.9 (00:00) 27.4 7.78 (16:00) 4.72 (02:40) 0 0 0 0 0
18-08-2019 35.8 (16:20) 18.7 (00:00) 27.3 14.17 (15:50) 9.44 (15:50) 0 0 0 0 0
01-08-2019 34.2 (17:30) 18.6 (00:00) 26.4 13.33 (00:40) 8.61 (00:20) 0 0 0 0 0
05-08-2019 36.2 (17:50) 18.1 (00:00) 27.2 7.78 (15:40) 3.89 (15:40) 0 0 0 0 0
19-08-2019 33.5 (18:30) 18.1 (00:00) 25.8 10.56 (16:50) 4.72 (14:50) 0 0 0 0 0
11-08-2019 29.7 (16:40) 18 (00:00) 23.9 9.72 (17:20) 5.28 (17:30) 0 0 0 0 0
02-08-2019 35.6 (17:30) 17.9 (00:00) 26.7 7.22 (14:00) 3.89 (13:40) 0 0 0 0 0
04-08-2019 36 (17:30) 17.8 (00:00) 26.9 11.11 (15:00) 5.28 (17:50) 0 0 0 0 0
06-08-2019 35.8 (17:10) 17.7 (00:00) 26.8 10.56 (18:20) 6.39 (18:00) 0 0 0 0 0
29-07-2019 32.8 (17:10) 17.7 (00:00) 25.3 10 (19:40) 5.83 (20:40) 0 0 0 0 0
23-08-2019 32.2 (16:50) 17.4 (00:00) 24.8 8.06 (10:30) 5.56 (10:30) 0 0 0 0 0
24-08-2019 33.7 (18:10) 17 (00:00) 25.4 9.44 (15:00) 4.72 (09:40) 0 0 0 0 0
15-08-2019 35.1 (17:00) 16.8 (00:00) 25.9 6.94 (15:30) 3.33 (15:40) 0 0 0 0 0
10-08-2019 32.3 (18:20) 16.7 (00:00) 24.5 8.61 (13:50) 3.89 (17:20) 0 0 0 0 0
27-07-2019 26.8 (17:30) 16.6 (00:00) 21.7 13.61 (18:20) 6.94 (15:20) 0 0 0 0 0
08-08-2019 34.7 (17:10) 16.2 (00:00) 25.5 11.67 (17:30) 5.28 (16:30) 0 0 0 0 0
30-07-2019 30.9 (17:40) 15.5 (00:00) 23.2 8.61 (10:00) 6.39 (10:00) 0 0 0 0 0
13-08-2019 29.3 (18:10) 15.1 (00:00) 22.2 10.83 (02:50) 7.5 (02:40) 0 0 0 0 0
14-08-2019 32.6 (17:50) 14.3 (00:00) 23.4 7.22 (17:40) 3.61 (01:10) 0 0 0 0 0
28-07-2019 29.7 (18:40) 14 (00:00) 21.9 6.94 (16:10) 4.17 (06:30) 0 0 0 0 0
12-08-2019 27.7 (17:20) 13.4 (00:00) 20.6 11.94 (17:00) 6.39 (12:10) 0 0 0 0 0
22-08-2019 31.9 (18:10) 13.2 (00:00) 22.5 6.11 (14:40) 3.89 (00:10) 0 0 0 0 0

Gráficas

Temp. máximas Temp. mínimas Temp. medias Precipitaciones Rachas de viento máximas Velocidades máximas media en intervalos de 10 minutos

Datos horarios

Fecha y hora oficial Temperatura (ºC) Velocidad del viento (km/h) Dirección del viento Racha (km/h) Dirección de racha Precipitación (mm) Presión (hPa) Tendencia (hPa) Humedad (%)
2019-08-24 23:00:00 25 4 Sur 10 Sudeste 0 -- -- 28
2019-08-24 22:00:00 26.2 3 Sudeste 5 Sudeste 0 -- -- 26
2019-08-24 21:00:00 29.1 3 Sur 9 Sudoeste 0 -- -- 23
2019-08-24 20:00:00 31.4 2 Norte 11 Noroeste 0 -- -- 21
2019-08-24 19:00:00 33.4 4 Oeste 13 Norte 0 -- -- 20
2019-08-24 18:00:00 33.3 8 Oeste 16 Oeste 0 -- -- 20
2019-08-24 17:00:00 33.4 4 Sudoeste 22 Este 0 -- -- 21
2019-08-24 16:00:00 33.4 10 Sudeste 18 Este 0 -- -- 22
2019-08-24 15:00:00 32.9 9 Sur 34 Sudeste 0 -- -- 24
2019-08-24 14:00:00 31.6 6 Sudeste 21 Sur 0 -- -- 25
2019-08-24 13:00:00 30 10 Sur 23 Sur 0 -- -- 30
2019-08-24 12:00:00 28.4 9 Sudeste 20 Sudeste 0 -- -- 33
2019-08-24 11:00:00 25.6 12 Sur 26 Sudeste 0 -- -- 38
2019-08-24 10:00:00 23.2 14 Sudeste 25 Este 0 -- -- 44
2019-08-24 09:00:00 18.9 15 Este 22 Este 0 -- -- 54
2019-08-24 08:00:00 17.3 15 Este 21 Este 0 -- -- 62
2019-08-24 07:00:00 17.9 13 Sudeste 23 Este 0 -- -- 62
2019-08-24 06:00:00 18.6 13 Sudeste 23 Sudeste 0 -- -- 59
2019-08-24 05:00:00 19.2 13 Sudeste 22 Sudeste 0 -- -- 55
2019-08-24 04:00:00 20 12 Sudeste 23 Sudeste 0 -- -- 53
2019-08-24 03:00:00 20.5 13 Sudeste 24 Sudeste 0 -- -- 46
2019-08-24 02:00:00 21.2 13 Sudeste 24 Sudeste 0 -- -- 39
2019-08-24 01:00:00 21.5 12 Sudeste 18 Sudeste 0 -- -- 29
2019-08-24 00:00:00 22.6 6 Sudeste 11 Sudeste 0 -- -- 28
2019-08-23 23:00:00 23.3 5 Sudeste 8 Sur 0 -- -- 28
2019-08-23 22:00:00 25.4 6 Sur 10 Sudeste 0 -- -- 27
2019-08-23 21:00:00 28.6 4 Sudeste 14 Este 0 -- -- 26
2019-08-23 20:00:00 30.3 5 Sudeste 17 Este 0 -- -- 25
2019-08-23 19:00:00 31.5 9 Sur 20 Nordeste 0 -- -- 24
2019-08-23 18:00:00 32.1 6 Sur 22 Este 0 -- -- 25
2019-08-23 17:00:00 32.1 11 Este 22 Este 0 -- -- 25
2019-08-23 16:00:00 31.9 12 Sudeste 23 Este 0 -- -- 26
2019-08-23 15:00:00 31.2 9 Sudeste 27 Este 0 -- -- 27
2019-08-23 14:00:00 30.4 12 Sudeste 29 Este 0 -- -- 30
2019-08-23 13:00:00 28.7 11 Sudeste 24 Sudeste 0 -- -- 32
2019-08-23 12:00:00 26.8 11 Sudeste 24 Este 0 -- -- 35
2019-08-23 11:00:00 24.2 17 Sudeste 29 Este 0 -- -- 43
2019-08-23 10:00:00 21.9 20 Este 29 Este 0 -- -- 52
2019-08-23 09:00:00 20 18 Este 27 Este 0 -- -- 58
2019-08-23 08:00:00 17.7 14 Este 27 Sudeste 0 -- -- 63
2019-08-23 07:00:00 18.4 16 Sudeste 27 Sudeste 0 -- -- 60
2019-08-23 06:00:00 18.9 15 Sudeste 27 Sudeste 0 -- -- 63
2019-08-23 05:00:00 19.5 14 Sudeste 26 Sudeste 0 -- -- 66
2019-08-23 04:00:00 20.4 16 Sudeste 25 Sudeste 0 -- -- 66
2019-08-23 03:00:00 21.2 15 Sudeste 26 Sudeste 0 -- -- 64
2019-08-23 02:00:00 21.6 14 Sudeste 27 Sudeste 0 -- -- 53
2019-08-23 01:00:00 22.6 17 Sudeste 27 Sudeste 0 -- -- 40
2019-08-23 00:00:00 23.4 8 Sudeste 16 Sudeste 0 -- -- 33
2019-08-22 23:00:00 23.7 6 Sudeste 12 Sur 0 -- -- 33
2019-08-22 22:00:00 25 6 Sudeste 11 Sudeste 0 -- -- 30
2019-08-22 21:00:00 27.8 5 Sur 9 Sudeste 0 -- -- 27
2019-08-22 20:00:00 30 2 Sur 19 Sur 0 -- -- 22
2019-08-22 19:00:00 31.1 4 Este 17 Este 0 -- -- 20
2019-08-22 18:00:00 31.5 7 Sur 20 Sudeste 0 -- -- 21
2019-08-22 17:00:00 31.5 5 Nordeste 18 Este 0 -- -- 23
2019-08-22 16:00:00 30.8 12 Este 22 Este 0 -- -- 24
2019-08-22 15:00:00 30.3 10 Este 22 Norte 0 -- -- 26
2019-08-22 14:00:00 29.2 12 Este 19 Este 0 -- -- 32
2019-08-22 13:00:00 27.6 8 Sudeste 18 Nordeste 0 -- -- 38
2019-08-22 12:00:00 25.5 9 Nordeste 19 Nordeste 0 -- -- 44
2019-08-22 11:00:00 22.9 8 Sudeste 14 Sudeste 0 -- -- 54
2019-08-22 10:00:00 20.7 10 Este 16 Este 0 -- -- 63
2019-08-22 09:00:00 17 11 Este 15 Este 0 -- -- 75
2019-08-22 08:00:00 13.7 6 Este 12 Nordeste 0 -- -- 82
2019-08-22 07:00:00 13.3 7 Este 9 Este 0 -- -- 83
2019-08-22 06:00:00 13.7 8 Este 9 Este 0 -- -- 84
2019-08-22 05:00:00 14.4 6 Este 14 Este 0 -- -- 81
2019-08-22 04:00:00 15.2 10 Nordeste 15 Este 0 -- -- 77
2019-08-22 03:00:00 16.4 13 Este 18 Este 0 -- -- 72
2019-08-22 02:00:00 17.9 3 Este 12 Este 0 -- -- 62
2019-08-22 01:00:00 19.3 8 Sudeste 21 Este 0 -- -- 60
2019-08-22 00:00:00 20.2 15 Sudeste 40 Este 0 -- -- 60
2019-08-21 23:00:00 20.9 30 Este 42 Este 0.2 -- -- 72
2019-08-21 22:00:00 21.1 15 Sudeste 25 Sudeste 0 -- -- 74
2019-08-21 21:00:00 22.3 16 Sudeste 29 Sudeste 0 -- -- 70
2019-08-21 20:00:00 23.6 17 Sudeste 32 Sur 0 -- -- 69
2019-08-21 19:00:00 23.8 19 Sudeste 33 Sur 1.2 -- -- 70
2019-08-21 18:00:00 29 12 Sur 23 Sur 0 -- -- 43
2019-08-21 17:00:00 29 8 Sudeste 24 Sudeste 0 -- -- 44
2019-08-21 16:00:00 28.8 9 Sudeste 22 Sudeste 0 -- -- 44
2019-08-21 15:00:00 29 10 Sur 28 Sudeste 0 -- -- 43
2019-08-21 14:00:00 27.6 14 Sudeste 27 Este 0 -- -- 48
2019-08-21 13:00:00 26 14 Sudeste 31 Sudeste 0 -- -- 56
2019-08-21 12:00:00 24.7 19 Sudeste 31 Sudeste 0 -- -- 63
2019-08-21 11:00:00 23.8 20 Sudeste 33 Sudeste 0 -- -- 65
2019-08-21 10:00:00 22.5 21 Sudeste 33 Este 0 -- -- 70
2019-08-21 09:00:00 20.6 17 Este 27 Este 0 -- -- 76
2019-08-21 08:00:00 19.4 15 Este 26 Este 0 -- -- 80
2019-08-21 07:00:00 19.7 19 Este 33 Sudeste 0 -- -- 79
2019-08-21 06:00:00 20.1 20 Este 40 Sudeste 0 -- -- 76
2019-08-21 05:00:00 20.3 24 Sudeste 38 Este 0 -- -- 76
2019-08-21 04:00:00 20.3 18 Sudeste 32 Sudeste 0 -- -- 73
2019-08-21 03:00:00 20 17 Sudeste 28 Sudeste 0 -- -- 72
2019-08-21 02:00:00 20.1 20 Sudeste 40 Sudeste 0 -- -- 70
2019-08-21 01:00:00 20.5 25 Sudeste 40 Sudeste 0 -- -- 67
2019-08-21 00:00:00 21.4 24 Sudeste 46 Sudeste 0 -- -- 64
2019-08-20 23:00:00 22.7 27 Sudeste 44 Sudeste 0 -- -- 61
2019-08-20 22:00:00 25.6 23 Este 36 Este 0 -- -- 45
2019-08-20 21:00:00 27.4 22 Nordeste 31 Nordeste 0 -- -- 41
2019-08-20 20:00:00 29.2 26 Nordeste 35 Nordeste 0 -- -- 39
2019-08-20 19:00:00 30.9 21 Nordeste 30 Norte 0 -- -- 37
2019-08-20 18:00:00 30.5 21 Norte 32 Norte 0 -- -- 37
2019-08-20 17:00:00 29.7 13 Nordeste 26 Norte 0 -- -- 38
2019-08-20 16:00:00 30.8 11 Norte 28 Norte 0 -- -- 36
2019-08-20 15:00:00 29 11 Norte 25 Noroeste 0 -- -- 43
2019-08-20 14:00:00 30.2 5 Norte 20 Norte 0 -- -- 37
2019-08-20 13:00:00 28.3 10 Nordeste 22 Nordeste 0 -- -- 46
2019-08-20 12:00:00 27.6 10 Este 26 Este 0 -- -- 52
2019-08-20 11:00:00 24.8 12 Este 23 Nordeste 0 -- -- 64
2019-08-20 10:00:00 23.1 11 Este 19 Este 0 -- -- 72
2019-08-20 09:00:00 21.7 10 Nordeste 17 Este 0 -- -- 77
2019-08-20 08:00:00 21.1 11 Este 17 Sudeste 0 -- -- 79
2019-08-20 07:00:00 21.4 11 Sudeste 19 Este 0 -- -- 78
2019-08-20 06:00:00 21.8 13 Este 21 Este 0 -- -- 77
2019-08-20 05:00:00 21.8 7 Sudeste 15 Este 0 -- -- 59
2019-08-20 04:00:00 22.3 0 Calma 16 Norte 0 -- -- 50
2019-08-20 03:00:00 23.5 8 Noroeste 16 Norte 0 -- -- 47
2019-08-20 02:00:00 24.6 9 Norte 19 Norte 0 -- -- 42
2019-08-20 01:00:00 25.2 3 Noroeste 12 Oeste 0 -- -- 30
2019-08-20 00:00:00 25.8 4 Oeste 9 Oeste 0 -- -- 27
2019-08-19 23:00:00 26 5 Noroeste 14 Oeste 0 -- -- 28
2019-08-19 22:00:00 27.2 5 Noroeste 17 Noroeste 0 -- -- 30
2019-08-19 21:00:00 28.8 10 Noroeste 24 Oeste 0 -- -- 31
2019-08-19 20:00:00 30.6 13 Noroeste 31 Oeste 0 -- -- 30
2019-08-19 19:00:00 32.3 16 Noroeste 58 Noroeste 0 -- -- 29
2019-08-19 18:00:00 32.4 13 Oeste 28 Sudoeste 0 -- -- 29
2019-08-19 17:00:00 33.3 13 Sudoeste 38 Sudoeste 0 -- -- 27
2019-08-19 16:00:00 32.9 16 Oeste 36 Sudoeste 0 -- -- 27
2019-08-19 15:00:00 32.7 13 Sudoeste 28 Sudoeste 0 -- -- 27
2019-08-19 14:00:00 32 10 Sudoeste 26 Sudoeste 0 -- -- 29
2019-08-19 13:00:00 29.7 14 Sudoeste 31 Sudoeste 0 -- -- 34
2019-08-19 12:00:00 28.1 6 Sudoeste 17 Sudoeste 0 -- -- 40
2019-08-19 11:00:00 26.6 5 Noroeste 13 Oeste 0 -- -- 49
2019-08-19 10:00:00 24.1 5 Sudoeste 11 Oeste 0 -- -- 53
2019-08-19 09:00:00 21.6 4 Sudoeste 8 Sudoeste 0 -- -- 56
2019-08-19 08:00:00 18.6 6 Sudoeste 10 Oeste 0 -- -- 67
2019-08-19 07:00:00 19.6 6 Oeste 9 Oeste 0 -- -- 64
2019-08-19 06:00:00 21.5 8 Oeste 14 Oeste 0 -- -- 61
2019-08-19 05:00:00 21.4 6 Oeste 16 Oeste 0 -- -- 59
2019-08-19 04:00:00 20.7 3 Oeste 10 Sudoeste 0 -- -- 44
2019-08-19 03:00:00 20.7 5 Sudoeste 10 Sur 0 -- -- 38
2019-08-19 02:00:00 23.6 8 Oeste 18 Oeste 0 -- -- 34
2019-08-19 01:00:00 24.6 9 Oeste 18 Noroeste 0 -- -- 32
2019-08-19 00:00:00 25.7 11 Oeste 22 Oeste 0 -- -- 30
2019-08-18 23:00:00 25.7 13 Oeste 23 Noroeste 0 -- -- 27
2019-08-18 22:00:00 27.6 12 Oeste 26 Oeste 0 -- -- 24
2019-08-18 21:00:00 29.9 15 Oeste 33 Oeste 0 -- -- 21
2019-08-18 20:00:00 31.6 15 Oeste 33 Oeste 0 -- -- 22
2019-08-18 19:00:00 34 17 Oeste 36 Oeste 0 -- -- 19
2019-08-18 18:00:00 34.9 15 Oeste 45 Oeste 0 -- -- 17
2019-08-18 17:00:00 33.9 18 Oeste 50 Sudoeste 0 -- -- 19
2019-08-18 16:00:00 35 29 Sudoeste 51 Sudoeste 0 -- -- 17
2019-08-18 15:00:00 34.8 13 Oeste 47 Sudoeste 0 -- -- 20
2019-08-18 14:00:00 33.6 12 Oeste 33 Oeste 0 -- -- 20
2019-08-18 13:00:00 32.8 12 Oeste 33 Oeste 0 -- -- 18
2019-08-18 12:00:00 31.8 15 Oeste 27 Sudoeste 0 -- -- 22
2019-08-18 11:00:00 30.6 12 Sudoeste 22 Sudoeste 0 -- -- 22
2019-08-18 10:00:00 28.2 8 Sur 13 Sudoeste 0 -- -- 27
2019-08-18 09:00:00 23.3 6 Sur 10 Sudoeste 0 -- -- 32
2019-08-18 08:00:00 19.5 4 Sur 8 Sur 0 -- -- 35
2019-08-18 07:00:00 19.1 5 Sudeste 8 Sudeste 0 -- -- 35
2019-08-18 06:00:00 19.8 3 Sudeste 12 Sur 0 -- -- 30
2019-08-18 05:00:00 20.5 8 Sudeste 12 Sudeste 0 -- -- 30
2019-08-18 04:00:00 20.1 3 Sudeste 7 Sudeste 0 -- -- 31
2019-08-18 03:00:00 21.9 5 Sudeste 8 Sudeste 0 -- -- 28
2019-08-18 02:00:00 22.7 3 Sudoeste 5 Sudoeste 0 -- -- 28
2019-08-18 01:00:00 25.2 3 Oeste 11 Norte 0 -- -- 26
2019-08-18 00:00:00 26.2 4 Noroeste 12 Noroeste 0 -- -- 26
2019-08-17 23:00:00 27.8 6 Noroeste 14 Noroeste 0 -- -- 26
2019-08-17 22:00:00 29.2 4 Noroeste 14 Oeste 0 -- -- 26
2019-08-17 21:00:00 32.8 9 Noroeste 29 Oeste 0 -- -- 21
2019-08-17 20:00:00 34.7 13 Noroeste 33 Oeste 0 -- -- 19
2019-08-17 19:00:00 36.4 15 Oeste 37 Oeste 0 -- -- 19
2019-08-17 18:00:00 37 10 Oeste 31 Sudoeste 0 -- -- 19
2019-08-17 17:00:00 37.1 15 Sudoeste 31 Oeste 0 -- -- 19
2019-08-17 16:00:00 36.8 17 Oeste 39 Sudoeste 0 -- -- 20
2019-08-17 15:00:00 36 14 Oeste 30 Sudoeste 0 -- -- 21
2019-08-17 14:00:00 35.2 17 Sudoeste 28 Sudoeste 0 -- -- 23
2019-08-17 13:00:00 34.2 9 Oeste 24 Sudoeste 0 -- -- 23
2019-08-17 12:00:00 32.9 11 Sudoeste 21 Sudoeste 0 -- -- 23
2019-08-17 11:00:00 29.9 9 Sudoeste 16 Sur 0 -- -- 26
2019-08-17 10:00:00 26.5 9 Sur 14 Sur 0 -- -- 31
2019-08-17 09:00:00 22.6 7 Sudeste 14 Sudeste 0 -- -- 41
2019-08-17 08:00:00 19.6 6 Sudeste 16 Sudeste 0 -- -- 40
2019-08-17 07:00:00 20 3 Noroeste 6 Sur 0 -- -- 39
2019-08-17 06:00:00 19.6 4 Oeste 8 Sudeste 0 -- -- 43
2019-08-17 05:00:00 20.9 4 Sudoeste 9 Sudoeste 0 -- -- 40
2019-08-17 04:00:00 23.3 5 Oeste 9 Sudoeste 0 -- -- 36
2019-08-17 03:00:00 23.3 4 Oeste 6 Noroeste 0 -- -- 36
2019-08-17 02:00:00 24.4 6 Oeste 10 Oeste 0 -- -- 33
2019-08-17 01:00:00 25.6 7 Oeste 16 Noroeste 0 -- -- 32
2019-08-17 00:00:00 27.6 9 Oeste 17 Oeste 0 -- -- 30
2019-08-16 23:00:00 28.8 10 Oeste 15 Oeste 0 -- -- 30
2019-08-16 22:00:00 30.1 5 Noroeste 16 Oeste 0 -- -- 29
2019-08-16 21:00:00 32.6 7 Noroeste 17 Oeste 0 -- -- 26
2019-08-16 20:00:00 34.2 6 Noroeste 23 Oeste 0 -- -- 24
2019-08-16 19:00:00 35.5 9 Noroeste 19 Oeste 0 -- -- 23
2019-08-16 18:00:00 35.7 12 Oeste 27 Oeste 0 -- -- 23
2019-08-16 17:00:00 35.7 6 Oeste 25 Oeste 0 -- -- 23
2019-08-16 16:00:00 35.2 12 Noroeste 28 Noroeste 0 -- -- 22
2019-08-16 15:00:00 34.3 10 Oeste 27 Sudoeste 0 -- -- 23
2019-08-16 14:00:00 33.2 9 Sudoeste 19 Oeste 0 -- -- 27
2019-08-16 13:00:00 31.6 7 Este 19 Este 0 -- -- 32
2019-08-16 12:00:00 29.2 8 Sudeste 18 Sudeste 0 -- -- 38
2019-08-16 11:00:00 26.4 10 Sudeste 18 Sudeste 0 -- -- 45
2019-08-16 10:00:00 24.1 12 Sudeste 19 Sudeste 0 -- -- 52
2019-08-16 09:00:00 21.8 12 Sudeste 18 Este 0 -- -- 59
2019-08-16 08:00:00 19.7 10 Este 16 Sudeste 0 -- -- 66
2019-08-16 07:00:00 19.1 8 Este 13 Este 0 -- -- 67
2019-08-16 06:00:00 19.7 12 Este 15 Este 0 -- -- 66
2019-08-16 05:00:00 19.8 8 Este 12 Este 0 -- -- 62
2019-08-16 04:00:00 21.2 10 Este 18 Este 0 -- -- 56
2019-08-16 03:00:00 23.4 14 Este 22 Nordeste 0 -- -- 43
2019-08-16 02:00:00 24.5 13 Nordeste 18 Nordeste 0 -- -- 37
2019-08-16 01:00:00 25.1 5 Norte 10 Norte 0 -- -- 30
2019-08-16 00:00:00 25.4 4 Nordeste 9 Noroeste 0 -- -- 30
2019-08-15 23:00:00 26.3 6 Sudeste 8 Sudeste 0 -- -- 28
2019-08-15 22:00:00 28.5 3 Nordeste 6 Noroeste 0 -- -- 26
2019-08-15 21:00:00 31.3 4 Noroeste 11 Oeste 0 -- -- 24
2019-08-15 20:00:00 33.1 6 Noroeste 16 Noroeste 0 -- -- 23
2019-08-15 19:00:00 34.6 6 Norte 15 Oeste 0 -- -- 21
2019-08-15 18:00:00 35.1 8 Oeste 19 Oeste 0 -- -- 20
2019-08-15 17:00:00 35.1 8 Noroeste 24 Oeste 0 -- -- 20
2019-08-15 16:00:00 34.3 9 Sudoeste 25 Oeste 0 -- -- 20
2019-08-15 15:00:00 33.9 7 Noroeste 21 Oeste 0 -- -- 21
2019-08-15 14:00:00 33.3 8 Oeste 16 Sudoeste 0 -- -- 22
2019-08-15 13:00:00 32.6 6 Sudeste 13 Noroeste 0 -- -- 23
2019-08-15 12:00:00 30.1 5 Sur 13 Sudeste 0 -- -- 26
2019-08-15 11:00:00 27.2 4 Sudeste 15 Sudeste 0 -- -- 35
2019-08-15 10:00:00 24.1 9 Sudeste 14 Sudeste 0 -- -- 40
2019-08-15 09:00:00 20.1 5 Sudeste 12 Este 0 -- -- 35
2019-08-15 08:00:00 17.4 4 Este 11 Sudeste 0 -- -- 36
2019-08-15 07:00:00 17.2 3 Sudeste 13 Sudeste 0 -- -- 36
2019-08-15 06:00:00 18.1 6 Sur 17 Sudeste 0 -- -- 34
2019-08-15 05:00:00 19 3 Nordeste 12 Este 0 -- -- 32
2019-08-15 04:00:00 19.2 7 Este 12 Este 0 -- -- 29
2019-08-15 03:00:00 20.8 4 Sudoeste 9 Oeste 0 -- -- 31
2019-08-15 02:00:00 21.2 5 Oeste 7 Oeste 0 -- -- 32
2019-08-15 01:00:00 21.7 0 Calma 4 Oeste 0 -- -- 27
2019-08-15 00:00:00 22.8 2 Este 4 Este 0 -- -- 27
2019-08-14 23:00:00 24 3 Sur 8 Nordeste 0 -- -- 26
2019-08-14 22:00:00 25.5 7 Nordeste 9 Nordeste 0 -- -- 24
2019-08-14 21:00:00 29.2 3 Noroeste 10 Noroeste 0 -- -- 22
2019-08-14 20:00:00 31 4 Oeste 16 Oeste 0 -- -- 21
2019-08-14 19:00:00 32.4 7 Oeste 18 Oeste 0 -- -- 19
2019-08-14 18:00:00 32.4 11 Noroeste 26 Noroeste 0 -- -- 20
2019-08-14 17:00:00 31.9 11 Sudoeste 23 Noroeste 0 -- -- 20
2019-08-14 16:00:00 31.8 10 Noroeste 23 Noroeste 0 -- -- 21
2019-08-14 15:00:00 31.5 6 Oeste 20 Oeste 0 -- -- 23
2019-08-14 14:00:00 30.2 7 Noroeste 17 Sudoeste 0 -- -- 25
2019-08-14 13:00:00 29.1 8 Sur 14 Sudeste 0 -- -- 28
2019-08-14 12:00:00 26.6 5 Este 12 Nordeste 0 -- -- 42
2019-08-14 11:00:00 24.3 6 Sudeste 16 Sudeste 0 -- -- 55
2019-08-14 10:00:00 21.3 9 Sudeste 14 Sudeste 0 -- -- 69
2019-08-14 09:00:00 18.8 6 Sudeste 15 Sudeste 0 -- -- 78
2019-08-14 08:00:00 16.2 11 Este 15 Este 0 -- -- 79
2019-08-14 07:00:00 15.7 10 Este 14 Este 0 -- -- 78
2019-08-14 06:00:00 14.5 10 Este 14 Este 0 -- -- 62
2019-08-14 05:00:00 15.3 13 Este 14 Este 0 -- -- 33
2019-08-14 04:00:00 16.2 10 Este 13 Este 0 -- -- 31
2019-08-14 03:00:00 17.7 10 Nordeste 15 Nordeste 0 -- -- 30
2019-08-14 02:00:00 18.8 12 Este 20 Nordeste 0 -- -- 31
2019-08-14 01:00:00 19.3 5 Nordeste 17 Nordeste 0 -- -- 33
2019-08-14 00:00:00 19.8 4 Este 6 Este 0 -- -- 32
2019-08-13 23:00:00 21.5 3 Este 4 Este 0 -- -- 31
2019-08-13 22:00:00 23.3 3 Este 4 Este 0 -- -- 29
2019-08-13 21:00:00 26 3 Norte 17 Norte 0 -- -- 27
2019-08-13 20:00:00 27.8 6 Noroeste 17 Noroeste 0 -- -- 25
2019-08-13 19:00:00 28.9 5 Noroeste 17 Oeste 0 -- -- 24
2019-08-13 18:00:00 28.9 11 Noroeste 29 Oeste 0 -- -- 24
2019-08-13 17:00:00 29.2 7 Norte 18 Noroeste 0 -- -- 24
2019-08-13 16:00:00 28.8 8 Oeste 24 Noroeste 0 -- -- 23
2019-08-13 15:00:00 27.4 11 Norte 24 Norte 0 -- -- 27
2019-08-13 14:00:00 26.8 8 Norte 19 Oeste 0 -- -- 35
2019-08-13 13:00:00 26 5 Norte 16 Nordeste 0 -- -- 41
2019-08-13 12:00:00 24.1 6 Norte 14 Este 0 -- -- 48
2019-08-13 11:00:00 22.8 10 Este 21 Este 0 -- -- 47
2019-08-13 10:00:00 20.7 14 Nordeste 21 Nordeste 0 -- -- 45
2019-08-13 09:00:00 18.1 13 Nordeste 17 Nordeste 0 -- -- 47
2019-08-13 08:00:00 15.3 10 Nordeste 15 Nordeste 0 -- -- 52
2019-08-13 07:00:00 15.4 11 Nordeste 19 Nordeste 0 -- -- 51
2019-08-13 06:00:00 17.3 14 Nordeste 19 Nordeste 0 -- -- 47
2019-08-13 05:00:00 16.7 14 Nordeste 22 Nordeste 0 -- -- 48
2019-08-13 04:00:00 17.2 18 Nordeste 27 Nordeste 0 -- -- 45
2019-08-13 03:00:00 18.4 24 Nordeste 39 Este 0 -- -- 42
2019-08-13 02:00:00 19.2 23 Nordeste 34 Nordeste 0 -- -- 38
2019-08-13 01:00:00 20.2 21 Nordeste 27 Nordeste 0 -- -- 32
2019-08-13 00:00:00 21 13 Nordeste 26 Nordeste 0 -- -- 28
2019-08-12 23:00:00 22 15 Norte 23 Nordeste 0 -- -- 26
2019-08-12 22:00:00 21.5 7 Nordeste 14 Nordeste 0 -- -- 24
2019-08-12 21:00:00 24.4 11 Norte 25 Nordeste 0 -- -- 22
2019-08-12 20:00:00 25.8 9 Nordeste 22 Nordeste 0 -- -- 20
2019-08-12 19:00:00 27 9 Noroeste 24 Norte 0 -- -- 20
2019-08-12 18:00:00 27.5 11 Norte 28 Norte 0 -- -- 19
2019-08-12 17:00:00 27.3 13 Norte 43 Noroeste 0 -- -- 20
2019-08-12 16:00:00 27 17 Norte 27 Norte 0 -- -- 22
2019-08-12 15:00:00 25.8 10 Norte 28 Norte 0 -- -- 24
2019-08-12 14:00:00 24.8 10 Norte 30 Norte 0 -- -- 26
2019-08-12 13:00:00 23.8 14 Norte 38 Nordeste 0 -- -- 30
2019-08-12 12:00:00 22.5 20 Norte 32 Norte 0 -- -- 33
2019-08-12 11:00:00 20.8 18 Norte 28 Norte 0 -- -- 41
2019-08-12 10:00:00 19.2 13 Norte 19 Norte 0 -- -- 45
2019-08-12 09:00:00 16.9 10 Norte 17 Norte 0 -- -- 47
2019-08-12 08:00:00 14.1 6 Noroeste 10 Noroeste 0 -- -- 53
2019-08-12 07:00:00 14.1 5 Noroeste 12 Norte 0 -- -- 51
2019-08-12 06:00:00 14.9 5 Noroeste 13 Noroeste 0 -- -- 48
2019-08-12 05:00:00 15.7 7 Noroeste 16 Noroeste 0 -- -- 45
2019-08-12 04:00:00 16.9 6 Noroeste 17 Noroeste 0 -- -- 39
2019-08-12 03:00:00 17.8 6 Noroeste 13 Noroeste 0 -- -- 35
2019-08-12 02:00:00 18.9 5 Noroeste 12 Oeste 0 -- -- 34
2019-08-12 01:00:00 19.8 6 Noroeste 14 Noroeste 0 -- -- 33
2019-08-12 00:00:00 21.1 7 Noroeste 28 Noroeste 0 -- -- 32
2019-08-11 23:00:00 22.3 15 Oeste 33 Oeste 0 -- -- 28
2019-08-11 22:00:00 22.8 11 Oeste 27 Oeste 0 -- -- 30
2019-08-11 21:00:00 24.4 17 Oeste 35 Oeste 0 -- -- 27
2019-08-11 20:00:00 26 16 Oeste 33 Noroeste 0 -- -- 25
2019-08-11 19:00:00 28.7 17 Noroeste 33 Noroeste 0 -- -- 22
2019-08-11 18:00:00 29.7 18 Oeste 35 Oeste 0 -- -- 25
2019-08-11 17:00:00 29.4 14 Oeste 32 Oeste 0 -- -- 27
2019-08-11 16:00:00 28.4 14 Noroeste 34 Oeste 0 -- -- 28
2019-08-11 15:00:00 28.7 15 Oeste 33 Oeste 0 -- -- 28
2019-08-11 14:00:00 27.5 13 Oeste 33 Oeste 0 -- -- 28
2019-08-11 13:00:00 26.6 17 Oeste 31 Oeste 0 -- -- 32
2019-08-11 12:00:00 26 10 Oeste 27 Oeste 0 -- -- 37
2019-08-11 11:00:00 25 14 Oeste 26 Oeste 0 -- -- 35
2019-08-11 10:00:00 23 5 Oeste 13 Oeste 0 -- -- 39
2019-08-11 09:00:00 19 5 Sudoeste 9 Oeste 0 -- -- 48
2019-08-11 08:00:00 18.5 5 Oeste 13 Oeste 0 -- -- 48
2019-08-11 07:00:00 18.9 6 Noroeste 26 Noroeste 0 -- -- 47
2019-08-11 06:00:00 19.8 12 Oeste 23 Oeste 0 -- -- 42
2019-08-11 05:00:00 20.3 10 Oeste 15 Oeste 0 -- -- 38
2019-08-11 04:00:00 19.3 9 Oeste 15 Oeste 0 -- -- 37
2019-08-11 03:00:00 19.8 5 Sudoeste 7 Sudoeste 0 -- -- 36
2019-08-11 02:00:00 20.8 4 Oeste 7 Oeste 0 -- -- 34
2019-08-11 01:00:00 21.9 3 Oeste 17 Oeste 0 -- -- 32
2019-08-11 00:00:00 23.5 9 Oeste 15 Oeste 0 -- -- 31
2019-08-10 23:00:00 24.5 4 Noroeste 13 Noroeste 0 -- -- 32
2019-08-10 22:00:00 26.4 8 Noroeste 21 Noroeste 0 -- -- 29
2019-08-10 21:00:00 28.9 9 Noroeste 22 Noroeste 0 -- -- 30
2019-08-10 20:00:00 30.5 9 Noroeste 18 Oeste 0 -- -- 30
2019-08-10 19:00:00 32.3 8 Oeste 24 Sudoeste 0 -- -- 26
2019-08-10 18:00:00 32 6 Noroeste 24 Noroeste 0 -- -- 31
2019-08-10 17:00:00 32 6 Sudeste 25 Oeste 0 -- -- 33
2019-08-10 16:00:00 31.3 9 Sur 22 Oeste 0 -- -- 35
2019-08-10 15:00:00 29.6 11 Sudoeste 23 Sur 0 -- -- 38
2019-08-10 14:00:00 28 10 Oeste 31 Oeste 0 -- -- 38
2019-08-10 13:00:00 26.4 8 Sudoeste 20 Sudoeste 0 -- -- 42
2019-08-10 12:00:00 25 5 Noroeste 18 Noroeste 0 -- -- 46
2019-08-10 11:00:00 23.2 6 Oeste 17 Oeste 0 -- -- 53
2019-08-10 10:00:00 21.5 7 Oeste 17 Oeste 0 -- -- 60
2019-08-10 09:00:00 19.1 6 Oeste 12 Oeste 0 -- -- 71
2019-08-10 08:00:00 17.4 3 Oeste 8 Oeste 0 -- -- 77
2019-08-10 07:00:00 17 4 Oeste 10 Oeste 0 -- -- 78
2019-08-10 06:00:00 17.5 3 Oeste 10 Oeste 0 -- -- 76
2019-08-10 05:00:00 18.2 4 Oeste 14 Oeste 0 -- -- 74
2019-08-10 04:00:00 18.8 7 Oeste 15 Oeste 0 -- -- 79
2019-08-10 03:00:00 19.6 9 Oeste 19 Oeste 0 -- -- 77
2019-08-10 02:00:00 20.1 6 Oeste 18 Oeste 0 -- -- 75
2019-08-10 01:00:00 20.9 9 Oeste 21 Oeste 0 -- -- 74
2019-08-10 00:00:00 21.6 10 Oeste 24 Oeste 0 -- -- 72
2019-08-09 23:00:00 22.4 13 Noroeste 27 Noroeste 0 -- -- 68
2019-08-09 22:00:00 23.6 16 Noroeste 35 Oeste 0 -- -- 67
2019-08-09 21:00:00 25.8 19 Oeste 45 Oeste 0 -- -- 62
2019-08-09 20:00:00 29.6 20 Oeste 38 Oeste 0 -- -- 43
2019-08-09 19:00:00 31.8 18 Oeste 35 Sudoeste 0 -- -- 40
2019-08-09 18:00:00 32.8 16 Oeste 45 Oeste 0 -- -- 38
2019-08-09 17:00:00 32.8 18 Oeste 41 Oeste 0 -- -- 34
2019-08-09 16:00:00 32.2 15 Oeste 34 Oeste 0 -- -- 38
2019-08-09 15:00:00 30.9 12 Oeste 32 Oeste 0 -- -- 41
2019-08-09 14:00:00 30.1 15 Oeste 32 Oeste 0 -- -- 42
2019-08-09 13:00:00 29.1 11 Oeste 30 Oeste 0 -- -- 43
2019-08-09 12:00:00 27.5 16 Sudoeste 34 Sudoeste 0 -- -- 47
2019-08-09 11:00:00 25.8 7 Oeste 15 Oeste 0 -- -- 54
2019-08-09 10:00:00 24.1 8 Oeste 17 Oeste 0 -- -- 60
2019-08-09 09:00:00 22.2 6 Sudoeste 12 Sudoeste 0 -- -- 66
2019-08-09 08:00:00 19.7 6 Sur 9 Sur 0 -- -- 69
2019-08-09 07:00:00 19.7 3 Sudoeste 8 Sudoeste 0 -- -- 69
2019-08-09 06:00:00 20.4 4 Sudoeste 13 Oeste 0 -- -- 66
2019-08-09 05:00:00 22.4 8 Oeste 19 Oeste 0 -- -- 62
2019-08-09 04:00:00 23.4 10 Oeste 21 Oeste 0 -- -- 58
2019-08-09 03:00:00 23.5 9 Oeste 17 Oeste 0 -- -- 49
2019-08-09 02:00:00 22.8 3 Noroeste 7 Noroeste 0 -- -- 46
2019-08-09 01:00:00 24.6 4 Noroeste 12 Oeste 0 -- -- 41
2019-08-09 00:00:00 25.8 5 Oeste 13 Oeste 0 -- -- 39
2019-08-08 23:00:00 27.5 4 Noroeste 22 Oeste 0 -- -- 36
2019-08-08 22:00:00 29.1 10 Oeste 26 Oeste 0 -- -- 33
2019-08-08 21:00:00 31.3 17 Oeste 33 Oeste 0 -- -- 29
2019-08-08 20:00:00 32.9 17 Oeste 32 Oeste 0 -- -- 29
2019-08-08 19:00:00 34.1 15 Oeste 36 Noroeste 0 -- -- 29
2019-08-08 18:00:00 34.3 14 Oeste 42 Sudoeste 0 -- -- 28
2019-08-08 17:00:00 34.5 16 Sudoeste 33 Sudoeste 0 -- -- 28
2019-08-08 16:00:00 33.4 10 Sur 31 Sur 0 -- -- 30
2019-08-08 15:00:00 31.8 14 Sudoeste 26 Sudoeste 0 -- -- 34
2019-08-08 14:00:00 30.1 15 Sudoeste 29 Sudoeste 0 -- -- 38
2019-08-08 13:00:00 29 9 Sudoeste 21 Sudoeste 0 -- -- 40
2019-08-08 12:00:00 27.2 9 Sudoeste 18 Sudoeste 0 -- -- 42
2019-08-08 11:00:00 25.3 8 Oeste 16 Oeste 0 -- -- 50
2019-08-08 10:00:00 23.2 6 Sudoeste 15 Sur 0 -- -- 55
2019-08-08 09:00:00 20.6 6 Sur 10 Sur 0 -- -- 60
2019-08-08 08:00:00 16.8 5 Sudeste 8 Sudeste 0 -- -- 68
2019-08-08 07:00:00 17 2 Sur 8 Oeste 0 -- -- 69
2019-08-08 06:00:00 18.7 6 Oeste 11 Oeste 0 -- -- 67
2019-08-08 05:00:00 19 5 Oeste 13 Noroeste 0 -- -- 65
2019-08-08 04:00:00 17.8 2 Noroeste 12 Oeste 0 -- -- 64
2019-08-08 03:00:00 18.9 6 Oeste 14 Oeste 0 -- -- 62
2019-08-08 02:00:00 20.3 6 Oeste 13 Noroeste 0 -- -- 55
2019-08-08 01:00:00 20.7 5 Oeste 13 Noroeste 0 -- -- 56
2019-08-08 00:00:00 21.4 5 Oeste 10 Noroeste 0 -- -- 52
2019-08-07 23:00:00 22.7 4 Noroeste 14 Oeste 0 -- -- 50
2019-08-07 22:00:00 23.4 6 Oeste 25 Oeste 0 -- -- 48
2019-08-07 21:00:00 24.5 12 Oeste 25 Oeste 0 -- -- 45
2019-08-07 20:00:00 25 10 Noroeste 28 Oeste 0 -- -- 47
2019-08-07 19:00:00 25.7 14 Oeste 29 Oeste 0 -- -- 42
2019-08-07 18:00:00 26.3 16 Oeste 36 Oeste 0 -- -- 40
2019-08-07 17:00:00 27.2 12 Oeste 31 Oeste 0 -- -- 40
2019-08-07 16:00:00 26.4 18 Oeste 36 Noroeste 0 -- -- 43
2019-08-07 15:00:00 27.2 19 Oeste 37 Noroeste 0 -- -- 41
2019-08-07 14:00:00 27.7 16 Noroeste 31 Oeste 0 -- -- 35
2019-08-07 13:00:00 27.7 13 Oeste 24 Oeste 0 -- -- 36
2019-08-07 12:00:00 26.1 11 Oeste 19 Sudoeste 0 -- -- 42
2019-08-07 11:00:00 25.7 9 Oeste 19 Oeste 0 -- -- 43
2019-08-07 10:00:00 25.7 7 Oeste 14 Sur 0 -- -- 43
2019-08-07 09:00:00 22.9 3 Oeste 7 Oeste 0 -- -- 47
2019-08-07 08:00:00 20.5 3 Sudeste 6 Norte 0 -- -- 45
2019-08-07 07:00:00 20.9 3 Sudoeste 15 Oeste 0 -- -- 48
2019-08-07 06:00:00 23.1 9 Oeste 22 Noroeste 0 -- -- 47
2019-08-07 05:00:00 24.2 13 Oeste 22 Oeste 0 -- -- 44
2019-08-07 04:00:00 24.4 9 Oeste 18 Oeste 0 -- -- 39
2019-08-07 03:00:00 24.5 10 Oeste 21 Oeste 0 -- -- 32
2019-08-07 02:00:00 24.9 11 Oeste 20 Oeste 0 -- -- 26
2019-08-07 01:00:00 24.7 5 Oeste 11 Oeste 0 -- -- 29
2019-08-07 00:00:00 26.5 6 Noroeste 15 Oeste 0 -- -- 22
2019-08-06 23:00:00 27.2 9 Oeste 20 Oeste 0 -- -- 17
2019-08-06 22:00:00 28.9 12 Oeste 26 Oeste 0 -- -- 15
2019-08-06 21:00:00 31.6 17 Oeste 31 Oeste 0 -- -- 16
2019-08-06 20:00:00 33.2 17 Oeste 34 Oeste 0 -- -- 15
2019-08-06 19:00:00 35.3 16 Oeste 38 Sudoeste 0 -- -- 15
2019-08-06 18:00:00 35.2 23 Sudoeste 36 Sudoeste 0 -- -- 16
2019-08-06 17:00:00 35.6 17 Sudoeste 35 Sudoeste 0 -- -- 15
2019-08-06 16:00:00 35.3 14 Sudoeste 32 Sudoeste 0 -- -- 15
2019-08-06 15:00:00 34.4 14 Sudoeste 33 Oeste 0 -- -- 15
2019-08-06 14:00:00 34.2 12 Sudoeste 31 Sudoeste 0 -- -- 15
2019-08-06 13:00:00 32.4 9 Oeste 24 Sudoeste 0 -- -- 19
2019-08-06 12:00:00 31.3 11 Oeste 21 Oeste 0 -- -- 21
2019-08-06 11:00:00 29.7 6 Sudoeste 12 Sudoeste 0 -- -- 23
2019-08-06 10:00:00 26.9 4 Oeste 9 Sur 0 -- -- 30
2019-08-06 09:00:00 22.3 6 Sur 14 Sudeste 0 -- -- 27
2019-08-06 08:00:00 18.6 6 Sudeste 9 Sudeste 0 -- -- 31
2019-08-06 07:00:00 18.7 6 Sudeste 12 Sudeste 0 -- -- 30
2019-08-06 06:00:00 20.6 11 Sur 15 Sur 0 -- -- 26
2019-08-06 05:00:00 21.9 5 Oeste 11 Noroeste 0 -- -- 25
2019-08-06 04:00:00 21.8 6 Oeste 12 Sudoeste 0 -- -- 28
2019-08-06 03:00:00 22.2 4 Noroeste 13 Oeste 0 -- -- 27
2019-08-06 02:00:00 22.9 5 Oeste 12 Oeste 0 -- -- 26
2019-08-06 01:00:00 25 4 Oeste 14 Oeste 0 -- -- 26
2019-08-06 00:00:00 26.9 8 Oeste 17 Oeste 0 -- -- 25
2019-08-05 23:00:00 27.9 9 Oeste 15 Oeste 0 -- -- 25
2019-08-05 22:00:00 30 5 Noroeste 17 Oeste 0 -- -- 23
2019-08-05 21:00:00 32.8 8 Noroeste 20 Oeste 0 -- -- 20
2019-08-05 20:00:00 34.3 9 Noroeste 23 Oeste 0 -- -- 20
2019-08-05 19:00:00 36.2 10 Sur 24 Sudoeste 0 -- -- 16
2019-08-05 18:00:00 36 5 Noroeste 20 Oeste 0 -- -- 20
2019-08-05 17:00:00 35.8 8 Este 22 Sudeste 0 -- -- 20
2019-08-05 16:00:00 34.9 7 Noroeste 28 Sudoeste 0 -- -- 21
2019-08-05 15:00:00 34.8 6 Oeste 20 Oeste 0 -- -- 21
2019-08-05 14:00:00 33.3 6 Oeste 17 Oeste 0 -- -- 23
2019-08-05 13:00:00 32.1 5 Oeste 16 Oeste 0 -- -- 25
2019-08-05 12:00:00 30.5 7 Noroeste 18 Oeste 0 -- -- 27
2019-08-05 11:00:00 28.2 9 Noroeste 20 Oeste 0 -- -- 31
2019-08-05 10:00:00 26.5 10 Oeste 18 Oeste 0 -- -- 33
2019-08-05 09:00:00 23.2 5 Sudeste 7 Sudeste 0 -- -- 31
2019-08-05 08:00:00 19.3 4 Sur 8 Sudeste 0 -- -- 36
2019-08-05 07:00:00 18.2 3 Sudeste 10 Sudeste 0 -- -- 37
2019-08-05 06:00:00 20.4 6 Sur 13 Oeste 0 -- -- 38
2019-08-05 05:00:00 21.5 0 Calma 14 Oeste 0 -- -- 39
2019-08-05 04:00:00 23.3 8 Oeste 22 Oeste 0 -- -- 36
2019-08-05 03:00:00 24.2 11 Oeste 19 Sudoeste 0 -- -- 28
2019-08-05 02:00:00 24.6 8 Oeste 15 Oeste 0 -- -- 23
2019-08-05 01:00:00 26 8 Oeste 15 Oeste 0 -- -- 24
2019-08-05 00:00:00 25.6 6 Oeste 13 Oeste 0 -- -- 22
2019-08-04 23:00:00 27.4 6 Oeste 12 Oeste 0 -- -- 22
2019-08-04 22:00:00 28.9 7 Oeste 12 Noroeste 0 -- -- 18
2019-08-04 21:00:00 32 7 Noroeste 26 Oeste 0 -- -- 16
2019-08-04 20:00:00 33.6 11 Noroeste 30 Noroeste 0 -- -- 17
2019-08-04 19:00:00 35.4 13 Oeste 27 Oeste 0 -- -- 17
2019-08-04 18:00:00 35.8 9 Oeste 34 Sudoeste 0 -- -- 16
2019-08-04 17:00:00 35.8 13 Oeste 27 Sudoeste 0 -- -- 17
2019-08-04 16:00:00 34.9 10 Oeste 38 Sudoeste 0 -- -- 19
2019-08-04 15:00:00 34.3 15 Oeste 40 Sudoeste 0 -- -- 20
2019-08-04 14:00:00 33.6 4 Norte 24 Sudoeste 0 -- -- 21
2019-08-04 13:00:00 32.3 8 Sudoeste 19 Norte 0 -- -- 22
2019-08-04 12:00:00 31.3 10 Oeste 21 Oeste 0 -- -- 23
2019-08-04 11:00:00 29.2 7 Sudoeste 12 Oeste 0 -- -- 28
2019-08-04 10:00:00 26.8 5 Sur 13 Sur 0 -- -- 30
2019-08-04 09:00:00 22.6 7 Sur 17 Sudeste 0 -- -- 36
2019-08-04 08:00:00 18.4 6 Sudeste 12 Sudeste 0 -- -- 35
2019-08-04 07:00:00 19.5 5 Sudeste 7 Sudeste 0 -- -- 34
2019-08-04 06:00:00 19.8 5 Sudoeste 10 Sur 0 -- -- 34
2019-08-04 05:00:00 20.2 5 Sur 7 Sudeste 0 -- -- 35
2019-08-04 04:00:00 20.8 3 Sur 11 Sur 0 -- -- 34
2019-08-04 03:00:00 21.7 6 Sur 9 Sur 0 -- -- 33
2019-08-04 02:00:00 23 3 Sudoeste 6 Noroeste 0 -- -- 31
2019-08-04 01:00:00 25.3 4 Noroeste 9 Norte 0 -- -- 29
2019-08-04 00:00:00 26 4 Noroeste 8 Noroeste 0 -- -- 28
2019-08-03 23:00:00 27 4 Noroeste 11 Oeste 0 -- -- 24
2019-08-03 22:00:00 29.4 6 Noroeste 15 Noroeste 0 -- -- 19
2019-08-03 21:00:00 32.5 8 Oeste 26 Oeste 0 -- -- 16
2019-08-03 20:00:00 34.3 12 Noroeste 25 Sudoeste 0 -- -- 16
2019-08-03 19:00:00 35.6 6 Noroeste 28 Nordeste 0 -- -- 17
2019-08-03 18:00:00 36.1 11 Sudoeste 24 Oeste 0 -- -- 18
2019-08-03 17:00:00 36.3 11 Oeste 28 Sudoeste 0 -- -- 18
2019-08-03 16:00:00 35.9 8 Oeste 20 Nordeste 0 -- -- 19
2019-08-03 15:00:00 34.5 10 Noroeste 24 Sudoeste 0 -- -- 19
2019-08-03 14:00:00 33.9 6 Oeste 23 Sur 0 -- -- 19
2019-08-03 13:00:00 32.3 5 Sudoeste 19 Sudoeste 0 -- -- 24
2019-08-03 12:00:00 30.1 3 Sur 14 Sur 0 -- -- 28
2019-08-03 11:00:00 27.6 6 Sudeste 20 Sudeste 0 -- -- 37
2019-08-03 10:00:00 24.5 13 Sudeste 24 Sudeste 0 -- -- 48
2019-08-03 09:00:00 21.7 12 Sudeste 23 Sudeste 0 -- -- 58
2019-08-03 08:00:00 19.9 12 Sudeste 21 Sudeste 0 -- -- 61
2019-08-03 07:00:00 20.2 12 Sudeste 24 Sudeste 0 -- -- 59
2019-08-03 06:00:00 21 12 Sudeste 23 Sudeste 0 -- -- 57
2019-08-03 05:00:00 21.6 11 Sudeste 21 Sudeste 0 -- -- 58
2019-08-03 04:00:00 21.7 10 Sudeste 20 Sudeste 0 -- -- 48
2019-08-03 03:00:00 23.2 8 Sudeste 20 Este 0 -- -- 28
2019-08-03 02:00:00 24.3 4 Noroeste 8 Oeste 0 -- -- 25
2019-08-03 01:00:00 25.8 5 Oeste 11 Oeste 0 -- -- 24
2019-08-03 00:00:00 26.3 4 Noroeste 9 Oeste 0 -- -- 24
2019-08-02 23:00:00 26.9 3 Noroeste 8 Noroeste 0 -- -- 26
2019-08-02 22:00:00 29.5 5 Noroeste 8 Noroeste 0 -- -- 23
2019-08-02 21:00:00 32.3 4 Noroeste 13 Oeste 0 -- -- 21
2019-08-02 20:00:00 33.9 8 Oeste 18 Sudoeste 0 -- -- 20
2019-08-02 19:00:00 35.1 6 Norte 17 Oeste 0 -- -- 20
2019-08-02 18:00:00 34.9 8 Norte 22 Sudoeste 0 -- -- 20
2019-08-02 17:00:00 34.8 6 Norte 26 Oeste 0 -- -- 20
2019-08-02 16:00:00 34.5 7 Oeste 23 Sudoeste 0 -- -- 21
2019-08-02 15:00:00 34 10 Oeste 26 Sudoeste 0 -- -- 21
2019-08-02 14:00:00 32.7 11 Oeste 26 Oeste 0 -- -- 23
2019-08-02 13:00:00 32.2 8 Oeste 15 Sudoeste 0 -- -- 25
2019-08-02 12:00:00 29.9 7 Oeste 15 Sudoeste 0 -- -- 30
2019-08-02 11:00:00 27.2 6 Oeste 13 Sudoeste 0 -- -- 37
2019-08-02 10:00:00 24.2 6 Oeste 13 Oeste 0 -- -- 47
2019-08-02 09:00:00 21.4 5 Oeste 9 Noroeste 0 -- -- 51
2019-08-02 08:00:00 18.2 4 Oeste 13 Oeste 0 -- -- 43
2019-08-02 07:00:00 18.3 7 Oeste 12 Oeste 0 -- -- 41
2019-08-02 06:00:00 18.4 4 Oeste 15 Oeste 0 -- -- 39
2019-08-02 05:00:00 20.5 7 Oeste 14 Oeste 0 -- -- 36
2019-08-02 04:00:00 21.7 5 Oeste 11 Noroeste 0 -- -- 33
2019-08-02 03:00:00 22.4 5 Oeste 17 Oeste 0 -- -- 30
2019-08-02 02:00:00 22.8 8 Oeste 14 Oeste 0 -- -- 32
2019-08-02 01:00:00 24.1 8 Oeste 15 Noroeste 0 -- -- 29
2019-08-02 00:00:00 24.8 6 Oeste 14 Oeste 0 -- -- 28
2019-08-01 23:00:00 26.5 8 Oeste 16 Oeste 0 -- -- 26
2019-08-01 22:00:00 28.4 5 Oeste 15 Oeste 0 -- -- 25
2019-08-01 21:00:00 30.9 9 Oeste 27 Oeste 0 -- -- 21
2019-08-01 20:00:00 32.5 13 Oeste 31 Oeste 0 -- -- 20
2019-08-01 19:00:00 33.7 12 Oeste 33 Oeste 0 -- -- 19
2019-08-01 18:00:00 34 15 Oeste 35 Sudoeste 0 -- -- 19
2019-08-01 17:00:00 33.9 10 Oeste 28 Noroeste 0 -- -- 23
2019-08-01 16:00:00 33.2 8 Sur 34 Oeste 0 -- -- 25
2019-08-01 15:00:00 32.4 10 Noroeste 29 Oeste 0 -- -- 26
2019-08-01 14:00:00 31.5 10 Oeste 26 Oeste 0 -- -- 26
2019-08-01 13:00:00 30 6 Oeste 19 Sudoeste 0 -- -- 33
2019-08-01 12:00:00 27.9 8 Sur 20 Sur 0 -- -- 45
2019-08-01 11:00:00 25.5 12 Sur 22 Sudeste 0 -- -- 53
2019-08-01 10:00:00 23 13 Sudeste 26 Sudeste 0 -- -- 62
2019-08-01 09:00:00 20.4 15 Sudeste 25 Sudeste 0 -- -- 70
2019-08-01 08:00:00 18.8 13 Sudeste 26 Sudeste 0 -- -- 73
2019-08-01 07:00:00 19 17 Sudeste 30 Sudeste 0 -- -- 69
2019-08-01 06:00:00 19.5 17 Sudeste 32 Sudeste 0 -- -- 69
2019-08-01 05:00:00 19.9 19 Sudeste 35 Sudeste 0 -- -- 70
2019-08-01 04:00:00 20.2 18 Sudeste 36 Sudeste 0 -- -- 70
2019-08-01 03:00:00 20.6 25 Sudeste 44 Sudeste 0 -- -- 70
2019-08-01 02:00:00 21.3 25 Sudeste 48 Sudeste 0 -- -- 67
2019-08-01 01:00:00 22.2 28 Sudeste 48 Sudeste 0 -- -- 65
2019-08-01 00:00:00 23.6 32 Sudeste 51 Sudeste 0 -- -- 62
2019-07-31 23:00:00 25 28 Sudeste 48 Sudeste 0 -- -- 59
2019-07-31 22:00:00 27.1 26 Sudeste 40 Este 0 -- -- 52
2019-07-31 21:00:00 29.4 27 Sudeste 45 Este 0 -- -- 44
2019-07-31 20:00:00 31.5 19 Sudeste 33 Sudeste 0 -- -- 35
2019-07-31 19:00:00 33.1 18 Sudeste 30 Sudeste 0 -- -- 30
2019-07-31 18:00:00 33.6 17 Sudeste 33 Sudeste 0 -- -- 29
2019-07-31 17:00:00 33.7 12 Sudeste 33 Sudoeste 0 -- -- 28
2019-07-31 16:00:00 33.3 14 Sur 33 Sur 0 -- -- 29
2019-07-31 15:00:00 31.7 13 Sudeste 35 Sudeste 0 -- -- 33
2019-07-31 14:00:00 30.9 21 Sudeste 36 Sudeste 0 -- -- 35
2019-07-31 13:00:00 29.3 19 Sudeste 35 Sudeste 0 -- -- 39
2019-07-31 12:00:00 26.9 22 Sudeste 37 Sudeste 0 -- -- 47
2019-07-31 11:00:00 25.4 20 Sudeste 35 Sudeste 0 -- -- 54
2019-07-31 10:00:00 23.3 20 Sudeste 34 Sudeste 0 -- -- 61
2019-07-31 09:00:00 21.6 21 Este 37 Sudeste 0 -- -- 69
2019-07-31 08:00:00 19.9 19 Este 28 Sudeste 0 -- -- 76
2019-07-31 07:00:00 19.4 17 Este 26 Este 0 -- -- 74
2019-07-31 06:00:00 19.9 15 Este 28 Este 0 -- -- 66
2019-07-31 05:00:00 19.4 10 Este 16 Este 0 -- -- 61
2019-07-31 04:00:00 19.6 9 Este 18 Este 0 -- -- 60
2019-07-31 03:00:00 20.8 12 Este 17 Este 0 -- -- 61
2019-07-31 02:00:00 20 13 Este 21 Nordeste 0 -- -- 34
2019-07-31 01:00:00 20.8 13 Nordeste 16 Nordeste 0 -- -- 24
2019-07-31 00:00:00 21.9 9 Nordeste 12 Norte 0 -- -- 22
2019-07-30 23:00:00 25.1 8 Norte 15 Norte 0 -- -- 20
2019-07-30 22:00:00 25.8 12 Norte 15 Norte 0 -- -- 20
2019-07-30 21:00:00 27.9 10 Norte 16 Norte 0 -- -- 18
2019-07-30 20:00:00 29.5 11 Norte 17 Norte 0 -- -- 16
2019-07-30 19:00:00 30.3 5 Norte 19 Norte 0 -- -- 18
2019-07-30 18:00:00 30.5 8 Norte 22 Noroeste 0 -- -- 18
2019-07-30 17:00:00 30.1 8 Norte 22 Oeste 0 -- -- 19
2019-07-30 16:00:00 29.9 10 Noroeste 21 Norte 0 -- -- 20
2019-07-30 15:00:00 29.2 6 Oeste 19 Oeste 0 -- -- 24
2019-07-30 14:00:00 28.3 7 Nordeste 18 Oeste 0 -- -- 26
2019-07-30 13:00:00 27.3 9 Norte 21 Este 0 -- -- 29
2019-07-30 12:00:00 25.6 12 Nordeste 27 Nordeste 0 -- -- 31
2019-07-30 11:00:00 23.3 16 Norte 24 Norte 0 -- -- 35
2019-07-30 10:00:00 21.6 23 Nordeste 31 Nordeste 0 -- -- 38
2019-07-30 09:00:00 19.6 14 Nordeste 22 Nordeste 0 -- -- 41
2019-07-30 08:00:00 16.7 12 Norte 24 Norte 0 -- -- 46
2019-07-30 07:00:00 15.5 5 Noroeste 10 Noroeste 0 -- -- 48
2019-07-30 06:00:00 16.3 5 Noroeste 10 Noroeste 0 -- -- 45
2019-07-30 05:00:00 16.7 4 Noroeste 11 Oeste 0 -- -- 43
2019-07-30 04:00:00 18 4 Noroeste 10 Noroeste 0 -- -- 39
2019-07-30 03:00:00 19.1 6 Noroeste 11 Noroeste 0 -- -- 37
2019-07-30 02:00:00 20 4 Noroeste 13 Oeste 0 -- -- 35
2019-07-30 01:00:00 21.6 5 Noroeste 15 Noroeste 0 -- -- 33
2019-07-30 00:00:00 23.4 10 Noroeste 21 Oeste 0 -- -- 31
2019-07-29 23:00:00 25 13 Oeste 26 Oeste 0 -- -- 25
2019-07-29 22:00:00 26.5 12 Oeste 31 Oeste 0 -- -- 24
2019-07-29 21:00:00 28.6 19 Oeste 35 Noroeste 0 -- -- 26
2019-07-29 20:00:00 30.3 16 Noroeste 36 Noroeste 0 -- -- 24
2019-07-29 19:00:00 31.7 16 Oeste 35 Oeste 0 -- -- 21
2019-07-29 18:00:00 32 16 Oeste 33 Oeste 0 -- -- 19
2019-07-29 17:00:00 32.7 14 Oeste 35 Sudoeste 0 -- -- 19
2019-07-29 16:00:00 32.5 15 Noroeste 33 Oeste 0 -- -- 21
2019-07-29 15:00:00 31.6 17 Oeste 35 Sudoeste 0 -- -- 25
2019-07-29 14:00:00 30.5 17 Sudoeste 30 Sudoeste 0 -- -- 30
2019-07-29 13:00:00 29.1 16 Sudoeste 34 Sudoeste 0 -- -- 33
2019-07-29 12:00:00 28.2 12 Oeste 23 Oeste 0 -- -- 35
2019-07-29 11:00:00 26.5 10 Oeste 22 Oeste 0 -- -- 37
2019-07-29 10:00:00 24.7 11 Oeste 21 Noroeste 0 -- -- 42
2019-07-29 09:00:00 21.8 7 Oeste 14 Oeste 0 -- -- 49
2019-07-29 08:00:00 18.5 3 Oeste 7 Oeste 0 -- -- 52
2019-07-29 07:00:00 18 0 Calma 4 Sudeste 0 -- -- 49
2019-07-29 06:00:00 18.2 2 Sur 6 Sudeste 0 -- -- 44
2019-07-29 05:00:00 18.7 4 Sur 9 Sudeste 0 -- -- 41
2019-07-29 04:00:00 20.2 3 Sudoeste 8 Sudoeste 0 -- -- 40
2019-07-29 03:00:00 21.5 5 Oeste 9 Oeste 0 -- -- 37
2019-07-29 02:00:00 21.2 4 Sudoeste 7 Sur 0 -- -- 36
2019-07-29 01:00:00 21.5 5 Sur 9 Sur 0 -- -- 34
2019-07-29 00:00:00 22.5 7 Sur 9 Sur 0 -- -- 31
2019-07-28 23:00:00 23 4 Sudeste 5 Sudeste 0 -- -- 30
2019-07-28 22:00:00 25.2 3 Noroeste 8 Oeste 0 -- -- 29
2019-07-28 21:00:00 27.5 6 Oeste 17 Oeste 0 -- -- 27
2019-07-28 20:00:00 28.3 10 Noroeste 22 Noroeste 0 -- -- 27
2019-07-28 19:00:00 29.3 9 Noroeste 19 Oeste 0 -- -- 25
2019-07-28 18:00:00 29.1 9 Sudoeste 23 Sudoeste 0 -- -- 25
2019-07-28 17:00:00 28.6 9 Oeste 25 Sudoeste 0 -- -- 29
2019-07-28 16:00:00 28.1 12 Oeste 24 Oeste 0 -- -- 32
2019-07-28 15:00:00 26.9 11 Oeste 22 Oeste 0 -- -- 35
2019-07-28 14:00:00 26 8 Oeste 18 Noroeste 0 -- -- 37
2019-07-28 13:00:00 24.7 5 Nordeste 16 Norte 0 -- -- 38
2019-07-28 12:00:00 23.3 6 Nordeste 21 Nordeste 0 -- -- 40
2019-07-28 11:00:00 21.7 14 Nordeste 22 Este 0 -- -- 42
2019-07-28 10:00:00 19.7 11 Este 18 Este 0 -- -- 49
2019-07-28 09:00:00 17.2 12 Nordeste 16 Nordeste 0 -- -- 57
2019-07-28 08:00:00 14.7 10 Este 18 Nordeste 0 -- -- 66
2019-07-28 07:00:00 14.4 11 Este 22 Nordeste 0 -- -- 67
2019-07-28 06:00:00 15.2 13 Nordeste 20 Nordeste 0 -- -- 66
2019-07-28 05:00:00 16.1 11 Nordeste 17 Nordeste 0 -- -- 66
2019-07-28 04:00:00 16.2 5 Nordeste 12 Nordeste 0 -- -- 62
2019-07-28 03:00:00 17.1 9 Nordeste 12 Nordeste 0 -- -- 60
2019-07-28 02:00:00 18.1 9 Nordeste 15 Norte 0 -- -- 56
2019-07-28 01:00:00 19.4 4 Norte 14 Norte 0 -- -- 54
2019-07-28 00:00:00 20.9 6 Noroeste 17 Oeste 0 -- -- 55
2019-07-27 23:00:00 21.7 10 Oeste 27 Oeste 0 -- -- 52
2019-07-26 12:00:00 -- -- -- -- -- -- -- -- --
2019-07-26 11:00:00 25.8 12 Oeste 28 Oeste 0 -- -- 51
2019-07-26 10:00:00 24.3 13 Oeste 28 Oeste 0 -- -- 57
2019-07-26 09:00:00 23.1 12 Oeste 26 Oeste 0 -- -- 60
2019-07-26 08:00:00 22 11 Oeste 30 Oeste 0 -- -- 62
2019-07-26 07:00:00 22.4 13 Oeste 27 Oeste 0 -- -- 60
2019-07-26 06:00:00 23.1 9 Oeste 20 Oeste 0 -- -- 56
2019-07-26 05:00:00 23.5 14 Oeste 30 Oeste 0 -- -- 53
2019-07-26 04:00:00 24.5 10 Oeste 22 Oeste 0 -- -- 42
2019-07-26 03:00:00 24.1 8 Oeste 12 Sudoeste 0 -- -- 37
2019-07-26 02:00:00 24.3 3 Sur 4 Sur 0 -- -- 36
2019-07-26 01:00:00 24.9 3 Noroeste 9 Noroeste 0 -- -- 36
2019-07-26 00:00:00 26.3 4 Noroeste 10 Noroeste 0 -- -- 33